createdAt,value
2023-01-17T00:02:21.385Z,97720.16
2023-01-17T00:05:12.451Z,97718.06
2023-01-17T00:07:59.344Z,97715.50
2023-01-17T00:10:28.948Z,97722.00
2023-01-17T00:12:59.054Z,97731.75
2023-01-17T00:15:28.305Z,97731.28
2023-01-17T00:17:56.461Z,97738.91
2023-01-17T00:20:44.518Z,97730.25
2023-01-17T00:23:33.532Z,97740.75
2023-01-17T00:26:04.752Z,97742.81
2023-01-17T00:28:33.876Z,97747.50
2023-01-17T00:31:01.353Z,97761.63
2023-01-17T00:33:28.529Z,97753.50
2023-01-17T00:35:57.424Z,97760.09
2023-01-17T00:38:27.139Z,97758.03
2023-01-17T00:40:54.332Z,97760.97
2023-01-17T00:43:41.201Z,97771.78
2023-01-17T00:46:27.571Z,97776.97
2023-01-17T00:49:13.503Z,97792.09
2023-01-17T00:51:59.240Z,97785.34
2023-01-17T00:54:46.329Z,97794.28
2023-01-17T00:57:31.975Z,97800.31
2023-01-17T01:00:17.720Z,97830.97
2023-01-17T01:03:03.548Z,97789.03
2023-01-17T01:05:49.252Z,97802.44
2023-01-17T01:08:37.401Z,97798.56
2023-01-17T01:11:26.589Z,97802.81
2023-01-17T01:14:12.889Z,97809.63
2023-01-17T01:16:58.569Z,97823.28
2023-01-17T01:19:44.384Z,97822.97
2023-01-17T01:22:30.121Z,97828.25
2023-01-17T01:25:15.970Z,97827.44
2023-01-17T01:28:03.163Z,97831.13
2023-01-17T01:30:48.896Z,97829.03
2023-01-17T01:33:18.653Z,97832.94
2023-01-17T01:35:49.292Z,97832.69
2023-01-17T01:38:17.737Z,97839.25
2023-01-17T01:40:47.235Z,97843.69
2023-01-17T01:43:18.621Z,97834.81
2023-01-17T01:45:50.002Z,97845.31
2023-01-17T01:48:34.542Z,97853.19
2023-01-17T01:51:04.856Z,97853.97
2023-01-17T01:53:34.094Z,97855.00
2023-01-17T01:56:02.519Z,97853.19
2023-01-17T01:58:33.408Z,97857.91
2023-01-17T02:01:01.841Z,97846.91
2023-01-17T02:03:32.457Z,97847.69
2023-01-17T02:06:03.675Z,97844.81
2023-01-17T02:08:32.342Z,97851.63
2023-01-17T02:11:00.627Z,97850.31
2023-01-17T02:13:29.187Z,97843.50
2023-01-17T02:16:04.873Z,97844.78
2023-01-17T02:18:42.233Z,97851.63
2023-01-17T02:21:18.827Z,97842.72
2023-01-17T02:24:01.179Z,97843.25
2023-01-17T02:26:46.928Z,97840.91
2023-01-17T02:29:36.057Z,97838.81
2023-01-17T02:32:09.132Z,97839.06
2023-01-17T02:34:42.389Z,97840.13
2023-01-17T02:37:15.811Z,97845.38
2023-01-17T02:39:49.224Z,97849.00
2023-01-17T02:42:19.224Z,97860.78
2023-01-17T02:44:47.234Z,97853.72
2023-01-17T02:47:25.599Z,97866.28
2023-01-17T02:49:56.033Z,97850.56
2023-01-17T02:52:38.437Z,97859.47
2023-01-17T02:55:15.862Z,97865.22
2023-01-17T02:57:56.366Z,97867.34
2023-01-17T03:00:28.807Z,97873.59
2023-01-17T03:03:03.391Z,97877.81
2023-01-17T03:05:36.019Z,97875.97
2023-01-17T03:08:05.016Z,97881.97
2023-01-17T03:10:33.956Z,97872.22
2023-01-17T03:13:02.985Z,97880.28
2023-01-17T03:15:31.071Z,97873.00
2023-01-17T03:18:03.182Z,97875.31
2023-01-17T03:20:31.291Z,97874.50
2023-01-17T03:22:59.513Z,97885.97
2023-01-17T03:25:27.527Z,97893.28
2023-01-17T03:27:56.377Z,97889.63
2023-01-17T03:30:24.464Z,97889.06
2023-01-17T03:32:52.752Z,97900.56
2023-01-17T03:35:22.122Z,97892.44
2023-01-17T03:37:50.382Z,97890.66
2023-01-17T03:40:18.586Z,97898.47
2023-01-17T03:42:46.894Z,97889.53
2023-01-17T03:45:15.137Z,97891.59
2023-01-17T03:47:43.379Z,97886.94
2023-01-17T03:50:13.180Z,97885.88
2023-01-17T03:52:42.803Z,97880.97
2023-01-17T03:55:11.439Z,97899.09
2023-01-17T03:57:39.736Z,97889.72
2023-01-17T04:00:09.138Z,97896.06
2023-01-17T04:02:37.513Z,97901.06
2023-01-17T04:05:06.262Z,97893.75
2023-01-17T04:07:34.569Z,97896.38
2023-01-17T04:10:04.088Z,97888.81
2023-01-17T04:12:32.320Z,97891.69
2023-01-17T04:15:00.314Z,97890.34
2023-01-17T04:17:28.921Z,97888.00
2023-01-17T04:19:56.983Z,97885.09
2023-01-17T04:22:25.444Z,97882.50
2023-01-17T04:24:53.576Z,97879.09
2023-01-17T04:27:23.116Z,97887.72
2023-01-17T04:29:51.135Z,97886.34
2023-01-17T04:32:19.771Z,97884.75
2023-01-17T04:34:47.765Z,97894.97
2023-01-17T04:37:15.967Z,97891.31
2023-01-17T04:39:43.999Z,97893.47
2023-01-17T04:42:12.218Z,97890.81
2023-01-17T04:44:41.549Z,97899.44
2023-01-17T04:47:09.810Z,97902.31
2023-01-17T04:49:37.800Z,97898.72
2023-01-17T04:52:06.349Z,97893.75
2023-01-17T04:54:34.484Z,97888.53
2023-01-17T04:57:02.815Z,97881.75
2023-01-17T04:59:30.831Z,97892.97
2023-01-17T05:02:00.565Z,97886.72
2023-01-17T05:04:28.588Z,97895.34
2023-01-17T05:06:56.848Z,97893.53
2023-01-17T05:09:24.913Z,97898.22
2023-01-17T05:11:53.147Z,97901.38
2023-01-17T05:14:21.180Z,97910.28
2023-01-17T05:16:49.488Z,97906.59
2023-01-17T05:19:20.923Z,97899.81
2023-01-17T05:21:49.239Z,97902.91
2023-01-17T05:24:17.430Z,97903.97
2023-01-17T05:26:45.707Z,97901.88
2023-01-17T05:29:13.741Z,97902.69
2023-01-17T05:31:41.966Z,97907.13
2023-01-17T05:34:09.994Z,97912.88
2023-01-17T05:36:39.697Z,97914.41
2023-01-17T05:39:07.761Z,97912.06
2023-01-17T05:41:35.978Z,97915.50
2023-01-17T05:44:04.019Z,97913.38
2023-01-17T05:46:32.293Z,97919.13
2023-01-17T05:49:00.387Z,97910.78
2023-01-17T05:51:29.279Z,97914.44
2023-01-17T05:53:58.591Z,97908.16
2023-01-17T05:56:26.960Z,97899.75
2023-01-17T05:58:55.183Z,97897.66
2023-01-17T06:01:23.500Z,97885.63
2023-01-17T06:03:51.525Z,97893.69
2023-01-17T06:06:19.820Z,97898.16
2023-01-17T06:08:47.944Z,97891.06
2023-01-17T06:11:18.455Z,97884.50
2023-01-17T06:13:46.567Z,97883.22
2023-01-17T06:16:16.121Z,97873.53
2023-01-17T06:18:44.101Z,97876.16
2023-01-17T06:21:12.413Z,97881.38
2023-01-17T06:23:40.390Z,97872.50
2023-01-17T06:26:09.030Z,97885.31
2023-01-17T06:28:38.366Z,97884.56
2023-01-17T06:31:08.394Z,97869.63
2023-01-17T06:33:36.472Z,97874.59
2023-01-17T06:36:05.359Z,97874.09
2023-01-17T06:38:33.396Z,97868.34
2023-01-17T06:41:04.910Z,97866.75
2023-01-17T06:43:34.308Z,97871.47
2023-01-17T06:46:03.960Z,97869.38
2023-01-17T06:48:31.953Z,97872.53
2023-01-17T06:51:00.273Z,97872.00
2023-01-17T06:53:28.255Z,97872.56
2023-01-17T06:55:57.383Z,97869.41
2023-01-17T06:58:25.426Z,97866.28
2023-01-17T07:00:53.965Z,97870.50
2023-01-17T07:03:27.194Z,97868.91
2023-01-17T07:05:55.619Z,97866.28
2023-01-17T07:08:23.571Z,97865.25
2023-01-17T07:10:51.895Z,97862.38
2023-01-17T07:13:20.039Z,97861.03
2023-01-17T07:15:48.293Z,97858.97
2023-01-17T07:18:20.453Z,97864.19
2023-01-17T07:20:50.481Z,97859.44
2023-01-17T07:23:19.127Z,97853.16
2023-01-17T07:25:52.439Z,97847.38
2023-01-17T07:28:20.545Z,97851.00
2023-01-17T07:30:49.033Z,97851.50
2023-01-17T07:33:17.452Z,97836.81
2023-01-17T07:35:46.411Z,97853.09
2023-01-17T07:38:17.123Z,97843.16
2023-01-17T07:40:45.604Z,97837.16
2023-01-17T07:43:14.412Z,97835.09
2023-01-17T07:45:43.925Z,97838.75
2023-01-17T07:48:12.653Z,97832.22
2023-01-17T07:50:40.927Z,97841.09
2023-01-17T07:53:09.079Z,97841.06
2023-01-17T07:55:38.676Z,97836.88
2023-01-17T07:58:06.892Z,97835.31
2023-01-17T08:00:35.147Z,97827.72
2023-01-17T08:03:03.266Z,97824.81
2023-01-17T08:05:31.774Z,97833.97
2023-01-17T08:07:59.806Z,97832.13
2023-01-17T08:10:28.052Z,97836.34
2023-01-17T08:12:57.616Z,97834.19
2023-01-17T08:15:26.648Z,97827.34
2023-01-17T08:17:54.660Z,97819.94
2023-01-17T08:20:23.309Z,97815.22
2023-01-17T08:22:53.693Z,97815.25
2023-01-17T08:25:22.572Z,97816.75
2023-01-17T08:27:50.653Z,97807.53
2023-01-17T08:30:20.364Z,97814.09
2023-01-17T08:32:48.456Z,97812.53
2023-01-17T08:35:16.921Z,97803.69
2023-01-17T08:37:44.921Z,97803.19
2023-01-17T08:40:18.121Z,97802.69
2023-01-17T08:42:46.219Z,97801.09
2023-01-17T08:45:14.958Z,97805.19
2023-01-17T08:47:44.306Z,97797.28
2023-01-17T08:50:12.602Z,97804.59
2023-01-17T08:52:40.640Z,97801.81
2023-01-17T08:55:11.087Z,97811.81
2023-01-17T08:57:39.082Z,97811.28
2023-01-17T09:00:08.708Z,97810.44
2023-01-17T09:02:36.968Z,97804.34
2023-01-17T09:05:07.789Z,97809.38
2023-01-17T09:07:35.815Z,97818.00
2023-01-17T09:10:04.225Z,97814.31
2023-01-17T09:12:33.354Z,97810.16
2023-01-17T09:15:02.729Z,97816.94
2023-01-17T09:17:31.235Z,97821.16
2023-01-17T09:19:59.565Z,97804.31
2023-01-17T09:22:28.959Z,97817.34
2023-01-17T09:24:57.469Z,97811.59
2023-01-17T09:27:25.544Z,97811.03
2023-01-17T09:29:53.782Z,97819.94
2023-01-17T09:32:21.788Z,97811.78
2023-01-17T09:34:50.015Z,97809.41
2023-01-17T09:37:18.015Z,97815.66
2023-01-17T09:39:47.617Z,97820.16
2023-01-17T09:42:21.533Z,97817.47
2023-01-17T09:44:51.575Z,97819.78
2023-01-17T09:47:29.090Z,97828.66
2023-01-17T09:49:58.976Z,97834.63
2023-01-17T09:52:29.923Z,97841.91
2023-01-17T09:55:00.013Z,97837.69
2023-01-17T09:57:39.761Z,97827.75
2023-01-17T10:00:16.762Z,97839.50
2023-01-17T10:02:57.422Z,97839.34
2023-01-17T10:05:43.932Z,97843.59
2023-01-17T10:08:20.679Z,97835.66
2023-01-17T10:11:01.749Z,97835.09
2023-01-17T10:13:35.577Z,97841.28
2023-01-17T10:16:14.047Z,97842.34
2023-01-17T10:19:07.834Z,97839.03
2023-01-17T10:21:49.446Z,97836.78
2023-01-17T10:24:39.681Z,97841.13
2023-01-17T10:27:17.680Z,97841.13
2023-01-17T10:29:47.814Z,97835.75
2023-01-17T10:32:16.170Z,97837.31
2023-01-17T10:34:46.494Z,97831.53
2023-01-17T10:37:19.288Z,97832.25
2023-01-17T10:39:50.312Z,97828.63
2023-01-17T10:42:23.366Z,97829.72
2023-01-17T10:44:55.872Z,97830.31
2023-01-17T10:47:25.144Z,97828.16
2023-01-17T10:49:54.412Z,97821.63
2023-01-17T10:52:32.059Z,97827.50
2023-01-17T10:55:10.825Z,97819.84
2023-01-17T10:57:42.382Z,97812.09
2023-01-17T11:00:34.481Z,97815.13
2023-01-17T11:03:03.477Z,97801.97
2023-01-17T11:05:33.291Z,97811.91
2023-01-17T11:08:02.812Z,97809.25
2023-01-17T11:10:40.224Z,97800.44
2023-01-17T11:13:22.383Z,97788.00
2023-01-17T11:15:52.804Z,97781.59
2023-01-17T11:18:21.939Z,97785.25
2023-01-17T11:20:50.753Z,97777.22
2023-01-17T11:23:21.864Z,97778.44
2023-01-17T11:25:51.331Z,97776.06
2023-01-17T11:28:25.960Z,97764.97
2023-01-17T11:30:55.805Z,97765.19
2023-01-17T11:33:44.935Z,97760.22
2023-01-17T11:36:19.998Z,97753.63
2023-01-17T11:39:03.159Z,97755.66
2023-01-17T11:41:34.736Z,97746.63
2023-01-17T11:44:07.180Z,97743.84
2023-01-17T11:46:35.280Z,97733.97
2023-01-17T11:49:03.765Z,97731.28
2023-01-17T11:51:33.426Z,97732.69
2023-01-17T11:54:13.136Z,97729.94
2023-01-17T11:56:44.918Z,97717.19
2023-01-17T11:59:28.295Z,97703.34
2023-01-17T12:02:35.597Z,97701.78
2023-01-17T12:05:15.246Z,97685.91
2023-01-17T12:07:47.127Z,97685.50
2023-01-17T12:10:19.182Z,97681.69
2023-01-17T12:13:11.988Z,97685.66
2023-01-17T12:15:53.806Z,97679.25
2023-01-17T12:18:33.426Z,97664.84
2023-01-17T12:21:16.267Z,97668.78
2023-01-17T12:24:00.028Z,97672.41
2023-01-17T12:26:36.057Z,97670.31
2023-01-17T12:29:28.169Z,97666.63
2023-01-17T12:32:12.076Z,97665.94
2023-01-17T12:34:45.927Z,97650.84
2023-01-17T12:37:20.207Z,97645.00
2023-01-17T12:39:54.514Z,97641.69
2023-01-17T12:42:25.188Z,97632.88
2023-01-17T12:44:57.788Z,97624.09
2023-01-17T12:47:27.629Z,97620.25
2023-01-17T12:50:01.957Z,97617.91
2023-01-17T12:52:39.822Z,97620.91
2023-01-17T12:55:12.737Z,97621.84
2023-01-17T12:57:45.207Z,97619.91
2023-01-17T13:00:19.484Z,97619.34
2023-01-17T13:02:52.386Z,97608.16
2023-01-17T13:05:24.824Z,97605.63
2023-01-17T13:07:57.476Z,97588.59
2023-01-17T13:10:31.137Z,97586.63
2023-01-17T13:13:04.710Z,97575.94
2023-01-17T13:15:38.435Z,97574.75
2023-01-17T13:18:13.458Z,97578.22
2023-01-17T13:20:57.809Z,97573.53
2023-01-17T13:23:30.742Z,97561.19
2023-01-17T13:26:00.499Z,97539.97
2023-01-17T13:28:39.619Z,97552.94
2023-01-17T13:31:24.837Z,97550.69
2023-01-17T13:34:08.211Z,97543.94
2023-01-17T13:36:46.278Z,97537.25
2023-01-17T13:39:40.536Z,97538.69
2023-01-17T13:42:13.043Z,97541.03
2023-01-17T13:44:41.874Z,97536.94
2023-01-17T13:47:38.740Z,97554.50
2023-01-17T13:50:48.614Z,97551.94
2023-01-17T13:53:57.205Z,97552.53
2023-01-17T13:56:43.170Z,97550.06
2023-01-17T13:59:30.500Z,97550.41
2023-01-17T14:01:58.850Z,97556.75
2023-01-17T14:05:00.888Z,97571.34
2023-01-17T14:07:32.400Z,97567.69
2023-01-17T14:10:00.419Z,97564.59
2023-01-17T14:12:32.752Z,97574.09
2023-01-17T14:15:05.651Z,97571.56
2023-01-17T14:17:52.627Z,97575.75
2023-01-17T14:20:51.600Z,97574.78
2023-01-17T14:23:48.565Z,97579.84
2023-01-17T14:26:36.577Z,97580.84
2023-01-17T14:29:42.556Z,97575.38
2023-01-17T14:32:12.411Z,97579.13
2023-01-17T14:34:41.261Z,97582.69
2023-01-17T14:37:17.816Z,97582.75
2023-01-17T14:39:48.555Z,97583.75
2023-01-17T14:42:18.224Z,97582.25
2023-01-17T14:44:48.407Z,97588.19
2023-01-17T14:47:17.140Z,97587.91
2023-01-17T14:49:45.724Z,97590.31
2023-01-17T14:52:17.706Z,97589.84
2023-01-17T14:54:52.056Z,97593.78
2023-01-17T14:57:29.044Z,97577.97
2023-01-17T15:00:14.723Z,97597.13
2023-01-17T15:02:44.382Z,97592.28
2023-01-17T15:05:15.129Z,97591.31
2023-01-17T15:07:44.307Z,97596.41
2023-01-17T15:10:16.741Z,97602.06
2023-01-17T15:12:47.738Z,97595.16
2023-01-17T15:15:41.795Z,97602.88
2023-01-17T15:18:18.093Z,97598.78
2023-01-17T15:20:51.072Z,97601.19
2023-01-17T15:23:20.640Z,97602.28
2023-01-17T15:25:51.968Z,97602.88
2023-01-17T15:28:20.049Z,97606.34
2023-01-17T15:31:06.924Z,97606.19
2023-01-17T15:33:36.003Z,97606.94
2023-01-17T15:36:06.559Z,97609.66
2023-01-17T15:38:39.007Z,97612.97
2023-01-17T15:41:14.713Z,97609.22
2023-01-17T15:43:44.275Z,97605.50
2023-01-17T15:46:23.833Z,97602.38
2023-01-17T15:48:52.391Z,97607.91
2023-01-17T15:51:34.277Z,97601.63
2023-01-17T15:54:25.044Z,97594.88
2023-01-17T15:57:07.837Z,97596.94
2023-01-17T15:59:43.109Z,97586.06
2023-01-17T16:02:34.398Z,97592.00
2023-01-17T16:05:05.201Z,97584.94
2023-01-17T16:07:34.951Z,97583.94
2023-01-17T16:10:07.771Z,97586.72
2023-01-17T16:12:37.365Z,97584.25
2023-01-17T16:15:12.973Z,97584.69
2023-01-17T16:17:43.228Z,97581.47
2023-01-17T16:20:16.080Z,97580.72
2023-01-17T16:22:44.682Z,97590.94
2023-01-17T16:25:14.766Z,97586.59
2023-01-17T16:27:44.423Z,97588.75
2023-01-17T16:30:15.181Z,97592.19
2023-01-17T16:32:43.854Z,97592.34
2023-01-17T16:35:18.860Z,97595.56
2023-01-17T16:37:50.263Z,97599.06
2023-01-17T16:40:18.998Z,97601.53
2023-01-17T16:42:48.787Z,97591.59
2023-01-17T16:45:17.327Z,97594.28
2023-01-17T16:47:48.419Z,97595.19
2023-01-17T16:50:18.864Z,97593.19
2023-01-17T16:52:47.158Z,97598.56
2023-01-17T16:55:16.719Z,97601.47
2023-01-17T16:57:45.119Z,97593.13
2023-01-17T17:00:15.448Z,97598.50
2023-01-17T17:02:43.977Z,97600.44
2023-01-17T17:05:12.396Z,97590.47
2023-01-17T17:07:42.806Z,97589.38
2023-01-17T17:10:11.689Z,97587.09
2023-01-17T17:12:40.058Z,97583.47
2023-01-17T17:15:09.283Z,97587.72
2023-01-17T17:17:40.344Z,97583.09
2023-01-17T17:20:10.989Z,97588.97
2023-01-17T17:22:39.575Z,97592.72
2023-01-17T17:25:08.226Z,97588.09
2023-01-17T17:27:36.528Z,97590.09
2023-01-17T17:30:05.432Z,97590.44
2023-01-17T17:32:33.772Z,97583.13
2023-01-17T17:35:03.129Z,97592.41
2023-01-17T17:37:31.488Z,97595.09
2023-01-17T17:39:59.505Z,97604.03
2023-01-17T17:42:27.799Z,97595.09
2023-01-17T17:44:55.757Z,97597.75
2023-01-17T17:47:24.904Z,97598.00
2023-01-17T17:49:52.944Z,97605.03
2023-01-17T17:52:22.597Z,97607.50
2023-01-17T17:54:50.599Z,97613.50
2023-01-17T17:57:18.909Z,97617.09
2023-01-17T17:59:46.875Z,97621.78
2023-01-17T18:02:15.239Z,97621.84
2023-01-17T18:04:43.306Z,97621.56
2023-01-17T18:07:11.587Z,97626.53
2023-01-17T18:09:41.188Z,97631.16
2023-01-17T18:12:09.425Z,97630.84
2023-01-17T18:14:37.482Z,97631.06
2023-01-17T18:17:05.693Z,97627.41
2023-01-17T18:19:33.734Z,97632.00
2023-01-17T18:22:03.607Z,97625.88
2023-01-17T18:24:31.718Z,97636.88
2023-01-17T18:27:01.335Z,97636.88
2023-01-17T18:29:29.495Z,97628.91
2023-01-17T18:31:58.093Z,97632.19
2023-01-17T18:34:29.090Z,97642.69
2023-01-17T18:37:00.193Z,97643.97
2023-01-17T18:39:29.342Z,97639.41
2023-01-17T18:41:57.920Z,97643.47
2023-01-17T18:44:27.677Z,97640.84
2023-01-17T18:46:58.118Z,97655.03
2023-01-17T18:49:26.208Z,97654.31
2023-01-17T18:51:54.442Z,97655.19
2023-01-17T18:54:22.456Z,97662.22
2023-01-17T18:56:51.006Z,97662.34
2023-01-17T18:59:19.605Z,97658.13
2023-01-17T19:01:49.351Z,97669.19
2023-01-17T19:04:18.092Z,97665.28
2023-01-17T19:06:48.941Z,97663.38
2023-01-17T19:09:17.991Z,97667.56
2023-01-17T19:11:47.281Z,97670.72
2023-01-17T19:14:15.720Z,97674.81
2023-01-17T19:16:44.431Z,97675.38
2023-01-17T19:19:15.374Z,97679.03
2023-01-17T19:21:44.157Z,97675.38
2023-01-17T19:24:14.219Z,97682.66
2023-01-17T19:26:42.883Z,97686.88
2023-01-17T19:29:11.092Z,97687.38
2023-01-17T19:31:42.393Z,97679.84
2023-01-17T19:34:11.006Z,97686.13
2023-01-17T19:36:40.589Z,97687.38
2023-01-17T19:39:10.286Z,97698.72
2023-01-17T19:41:41.892Z,97697.38
2023-01-17T19:44:11.989Z,97693.78
2023-01-17T19:46:40.355Z,97695.34
2023-01-17T19:49:09.269Z,97697.44
2023-01-17T19:51:39.327Z,97698.47
2023-01-17T19:54:08.965Z,97693.28
2023-01-17T19:56:37.500Z,97693.63
2023-01-17T19:59:05.903Z,97701.69
2023-01-17T20:01:35.282Z,97699.19
2023-01-17T20:04:04.330Z,97694.41
2023-01-17T20:06:34.650Z,97700.75
2023-01-17T20:09:03.251Z,97707.94
2023-01-17T20:11:33.370Z,97704.28
2023-01-17T20:14:01.372Z,97702.84
2023-01-17T20:16:31.490Z,97707.06
2023-01-17T20:19:00.187Z,97710.72
2023-01-17T20:21:29.462Z,97707.56
2023-01-17T20:23:58.722Z,97706.53
2023-01-17T20:26:34.300Z,97711.22
2023-01-17T20:29:06.770Z,97711.22
2023-01-17T20:31:37.996Z,97712.81
2023-01-17T20:34:07.027Z,97716.56
2023-01-17T20:36:36.851Z,97718.31
2023-01-17T20:39:05.726Z,97711.78
2023-01-17T20:41:35.956Z,97722.94
2023-01-17T20:44:07.258Z,97730.25
2023-01-17T20:46:40.413Z,97735.00
2023-01-17T20:49:12.938Z,97721.28
2023-01-17T20:51:41.850Z,97725.41
2023-01-17T20:54:12.928Z,97723.16
2023-01-17T20:56:41.475Z,97725.72
2023-01-17T20:59:14.321Z,97726.13
2023-01-17T21:01:44.541Z,97721.97
2023-01-17T21:04:13.027Z,97727.22
2023-01-17T21:06:42.453Z,97715.06
2023-01-17T21:09:13.046Z,97719.47
2023-01-17T21:11:41.551Z,97728.69
2023-01-17T21:14:10.988Z,97728.22
2023-01-17T21:16:39.289Z,97728.31
2023-01-17T21:19:11.732Z,97731.44
2023-01-17T21:21:40.452Z,97728.75
2023-01-17T21:24:08.830Z,97729.72
2023-01-17T21:26:38.839Z,97725.75
2023-01-17T21:29:07.179Z,97729.50
2023-01-17T21:31:38.509Z,97727.34
2023-01-17T21:34:08.447Z,97726.66
2023-01-17T21:36:38.972Z,97731.44
2023-01-17T21:39:08.494Z,97725.66
2023-01-17T21:41:38.119Z,97727.66
2023-01-17T21:44:08.575Z,97717.97
2023-01-17T21:46:39.296Z,97720.81
2023-01-17T21:49:10.414Z,97733.63
2023-01-17T21:52:02.100Z,97729.72
2023-01-17T21:54:48.388Z,97737.44
2023-01-17T21:57:36.579Z,97738.28
2023-01-17T22:00:06.368Z,97740.06
2023-01-17T22:02:41.287Z,97736.72
2023-01-17T22:05:10.653Z,97737.50
2023-01-17T22:07:39.882Z,97737.72
2023-01-17T22:10:08.432Z,97746.09
2023-01-17T22:12:36.861Z,97746.63
2023-01-17T22:15:05.664Z,97743.84
2023-01-17T22:17:33.977Z,97749.31
2023-01-17T22:20:03.498Z,97750.34
2023-01-17T22:22:32.909Z,97734.91
2023-01-17T22:25:00.910Z,97749.16
2023-01-17T22:27:29.582Z,97745.19
2023-01-17T22:29:57.654Z,97743.44
2023-01-17T22:32:25.925Z,97746.31
2023-01-17T22:34:53.987Z,97744.28
2023-01-17T22:37:23.594Z,97754.53
2023-01-17T22:39:51.586Z,97756.41
2023-01-17T22:42:20.011Z,97746.44
2023-01-17T22:44:48.215Z,97754.94
2023-01-17T22:47:16.532Z,97745.00
2023-01-17T22:49:44.568Z,97746.25
2023-01-17T22:52:12.819Z,97753.34
2023-01-17T22:54:42.170Z,97752.75
2023-01-17T22:57:10.522Z,97750.66
2023-01-17T22:59:38.479Z,97743.91
2023-01-17T23:02:06.703Z,97741.75
2023-01-17T23:04:34.747Z,97743.88
2023-01-17T23:07:02.942Z,97742.38
2023-01-17T23:09:30.975Z,97746.13
2023-01-17T23:12:00.586Z,97741.88
2023-01-17T23:14:30.897Z,97736.41
2023-01-17T23:17:18.508Z,97736.63
2023-01-17T23:19:48.196Z,97733.91
2023-01-17T23:22:18.994Z,97727.63
2023-01-17T23:24:50.308Z,97734.72
2023-01-17T23:27:39.737Z,97737.66
2023-01-17T23:30:10.661Z,97730.63
2023-01-17T23:32:39.111Z,97735.06
2023-01-17T23:35:07.728Z,97738.97
2023-01-17T23:37:53.557Z,97734.00
2023-01-17T23:40:21.520Z,97735.13
2023-01-17T23:43:08.733Z,97732.25
2023-01-17T23:45:37.323Z,97731.97
2023-01-17T23:48:09.494Z,97737.75
2023-01-17T23:50:38.218Z,97734.09
2023-01-17T23:53:07.825Z,97732.56
2023-01-17T23:55:37.115Z,97733.59
2023-01-17T23:58:08.009Z,97736.25
